sensor_id;sensor_type;location;lat;lon;timestamp;temperature;humidity
1626;DHT22;806;48.770;9.156;2023-05-20T00:01:40;14.30;99.90
1626;DHT22;806;48.770;9.156;2023-05-20T00:04:07;14.40;99.90
1626;DHT22;806;48.770;9.156;2023-05-20T00:06:34;14.30;99.90
1626;DHT22;806;48.770;9.156;2023-05-20T00:09:03;14.30;99.90
1626;DHT22;806;48.770;9.156;2023-05-20T00:11:30;14.30;99.90
1626;DHT22;806;48.770;9.156;2023-05-20T00:13:57;14.20;99.90
1626;DHT22;806;48.770;9.156;2023-05-20T00:16:24;14.30;99.90
1626;DHT22;806;48.770;9.156;2023-05-20T00:18:51;14.30;99.90
1626;DHT22;806;48.770;9.156;2023-05-20T00:21:18;14.30;99.90
1626;DHT22;806;48.770;9.156;2023-05-20T00:23:45;14.30;99.90
1626;DHT22;806;48.770;9.156;2023-05-20T00:26:14;14.30;99.90
1626;DHT22;806;48.770;9.156;2023-05-20T00:28:41;14.30;99.90
1626;DHT22;806;48.770;9.156;2023-05-20T00:31:08;14.30;99.90
1626;DHT22;806;48.770;9.156;2023-05-20T00:33:35;14.30;99.90
1626;DHT22;806;48.770;9.156;2023-05-20T00:36:02;14.30;99.90
1626;DHT22;806;48.770;9.156;2023-05-20T00:38:29;14.20;99.90
1626;DHT22;806;48.770;9.156;2023-05-20T00:40:56;14.30;99.90
1626;DHT22;806;48.770;9.156;2023-05-20T00:43:25;14.30;99.90
1626;DHT22;806;48.770;9.156;2023-05-20T00:45:52;14.20;99.90
1626;DHT22;806;48.770;9.156;2023-05-20T00:48:20;14.20;99.90
1626;DHT22;806;48.770;9.156;2023-05-20T00:50:47;14.30;99.90
1626;DHT22;806;48.770;9.156;2023-05-20T00:53:16;14.30;99.90
1626;DHT22;806;48.770;9.156;2023-05-20T00:55:43;14.20;99.90
1626;DHT22;806;48.770;9.156;2023-05-20T00:58:10;14.20;99.90
1626;DHT22;806;48.770;9.156;2023-05-20T01:00:39;14.20;99.90
1626;DHT22;806;48.770;9.156;2023-05-20T01:03:07;14.30;99.90
1626;DHT22;806;48.770;9.156;2023-05-20T01:05:34;14.20;99.90
1626;DHT22;806;48.770;9.156;2023-05-20T01:08:01;14.20;99.90
1626;DHT22;806;48.770;9.156;2023-05-20T01:10:29;14.10;99.90
1626;DHT22;806;48.770;9.156;2023-05-20T01:13:00;14.10;99.90
1626;DHT22;806;48.770;9.156;2023-05-20T01:15:28;14.10;99.90
1626;DHT22;806;48.770;9.156;2023-05-20T01:18:01;14.10;99.90
1626;DHT22;806;48.770;9.156;2023-05-20T01:20:30;14.20;99.90
1626;DHT22;806;48.770;9.156;2023-05-20T01:23:00;14.20;99.90
1626;DHT22;806;48.770;9.156;2023-05-20T01:25:28;14.20;99.90
1626;DHT22;806;48.770;9.156;2023-05-20T01:27:56;14.10;99.90
1626;DHT22;806;48.770;9.156;2023-05-20T01:30:27;14.10;99.90
1626;DHT22;806;48.770;9.156;2023-05-20T01:32:58;14.10;99.90
1626;DHT22;806;48.770;9.156;2023-05-20T01:35:27;14.10;99.90
1626;DHT22;806;48.770;9.156;2023-05-20T01:37:56;14.10;99.90
1626;DHT22;806;48.770;9.156;2023-05-20T01:40:26;14.10;99.90
1626;DHT22;806;48.770;9.156;2023-05-20T01:42:54;14.10;99.90
1626;DHT22;806;48.770;9.156;2023-05-20T01:45:23;14.20;99.90
1626;DHT22;806;48.770;9.156;2023-05-20T01:47:51;14.20;99.90
1626;DHT22;806;48.770;9.156;2023-05-20T01:50:18;14.20;99.90
1626;DHT22;806;48.770;9.156;2023-05-20T01:52:45;14.20;99.90
1626;DHT22;806;48.770;9.156;2023-05-20T01:55:12;14.30;99.90
1626;DHT22;806;48.770;9.156;2023-05-20T01:57:40;14.30;99.90
1626;DHT22;806;48.770;9.156;2023-05-20T02:00:08;14.20;99.90
1626;DHT22;806;48.770;9.156;2023-05-20T02:02:35;14.20;99.90
1626;DHT22;806;48.770;9.156;2023-05-20T02:05:02;14.20;99.90
1626;DHT22;806;48.770;9.156;2023-05-20T02:07:30;14.20;99.90
1626;DHT22;806;48.770;9.156;2023-05-20T02:09:57;14.30;99.90
1626;DHT22;806;48.770;9.156;2023-05-20T02:12:24;14.30;99.90
1626;DHT22;806;48.770;9.156;2023-05-20T02:14:52;14.30;99.90
1626;DHT22;806;48.770;9.156;2023-05-20T02:17:20;14.20;99.90
1626;DHT22;806;48.770;9.156;2023-05-20T02:19:47;14.20;99.90
1626;DHT22;806;48.770;9.156;2023-05-20T02:22:14;14.10;99.90
1626;DHT22;806;48.770;9.156;2023-05-20T02:24:41;14.10;99.90
1626;DHT22;806;48.770;9.156;2023-05-20T02:27:08;14.10;99.90
1626;DHT22;806;48.770;9.156;2023-05-20T02:29:35;14.10;99.90
1626;DHT22;806;48.770;9.156;2023-05-20T02:32:05;13.90;99.90
1626;DHT22;806;48.770;9.156;2023-05-20T02:34:32;13.80;99.90
1626;DHT22;806;48.770;9.156;2023-05-20T02:36:59;13.70;99.90
1626;DHT22;806;48.770;9.156;2023-05-20T02:39:26;13.70;99.90
1626;DHT22;806;48.770;9.156;2023-05-20T02:41:54;13.70;99.90
1626;DHT22;806;48.770;9.156;2023-05-20T02:44:21;13.70;99.90
1626;DHT22;806;48.770;9.156;2023-05-20T02:46:48;13.60;99.90
1626;DHT22;806;48.770;9.156;2023-05-20T02:49:16;13.60;99.90
1626;DHT22;806;48.770;9.156;2023-05-20T02:51:43;13.50;99.90
1626;DHT22;806;48.770;9.156;2023-05-20T02:54:10;13.50;99.90
1626;DHT22;806;48.770;9.156;2023-05-20T02:56:37;13.60;99.90
1626;DHT22;806;48.770;9.156;2023-05-20T02:59:04;13.60;99.90
1626;DHT22;806;48.770;9.156;2023-05-20T03:01:32;13.50;99.90
1626;DHT22;806;48.770;9.156;2023-05-20T03:04:00;13.50;99.90
1626;DHT22;806;48.770;9.156;2023-05-20T03:06:29;13.40;99.90
1626;DHT22;806;48.770;9.156;2023-05-20T03:08:56;13.40;99.90
1626;DHT22;806;48.770;9.156;2023-05-20T03:11:24;13.40;99.90
1626;DHT22;806;48.770;9.156;2023-05-20T03:13:51;13.40;99.90
1626;DHT22;806;48.770;9.156;2023-05-20T03:16:18;13.40;99.90
1626;DHT22;806;48.770;9.156;2023-05-20T03:18:45;13.30;99.90
1626;DHT22;806;48.770;9.156;2023-05-20T03:21:12;13.30;99.90
1626;DHT22;806;48.770;9.156;2023-05-20T03:23:40;13.30;99.90
1626;DHT22;806;48.770;9.156;2023-05-20T03:26:07;13.30;99.90
1626;DHT22;806;48.770;9.156;2023-05-20T03:28:35;13.40;99.90
1626;DHT22;806;48.770;9.156;2023-05-20T03:31:02;13.40;99.90
1626;DHT22;806;48.770;9.156;2023-05-20T03:33:29;13.40;99.90
1626;DHT22;806;48.770;9.156;2023-05-20T03:35:58;13.40;99.90
1626;DHT22;806;48.770;9.156;2023-05-20T03:38:25;13.40;99.90
1626;DHT22;806;48.770;9.156;2023-05-20T03:40:54;13.40;99.90
1626;DHT22;806;48.770;9.156;2023-05-20T03:43:21;13.30;99.90
1626;DHT22;806;48.770;9.156;2023-05-20T03:45:49;13.30;99.90
1626;DHT22;806;48.770;9.156;2023-05-20T03:48:16;13.30;99.90
1626;DHT22;806;48.770;9.156;2023-05-20T03:50:44;13.30;99.90
1626;DHT22;806;48.770;9.156;2023-05-20T03:53:11;13.40;99.90
1626;DHT22;806;48.770;9.156;2023-05-20T03:55:38;13.30;99.90
1626;DHT22;806;48.770;9.156;2023-05-20T03:58:07;13.30;99.90
1626;DHT22;806;48.770;9.156;2023-05-20T04:00:34;13.20;99.90
1626;DHT22;806;48.770;9.156;2023-05-20T04:03:01;13.20;99.90
1626;DHT22;806;48.770;9.156;2023-05-20T04:05:28;13.30;99.90
1626;DHT22;806;48.770;9.156;2023-05-20T04:07:55;13.30;99.90
1626;DHT22;806;48.770;9.156;2023-05-20T04:10:23;13.30;99.90
1626;DHT22;806;48.770;9.156;2023-05-20T04:12:50;13.40;99.90
1626;DHT22;806;48.770;9.156;2023-05-20T04:15:20;13.50;99.90
1626;DHT22;806;48.770;9.156;2023-05-20T04:17:48;13.50;99.90
1626;DHT22;806;48.770;9.156;2023-05-20T04:20:17;13.60;99.90
1626;DHT22;806;48.770;9.156;2023-05-20T04:22:44;13.60;99.90
1626;DHT22;806;48.770;9.156;2023-05-20T04:25:12;13.70;99.90
1626;DHT22;806;48.770;9.156;2023-05-20T04:27:39;13.70;99.90
1626;DHT22;806;48.770;9.156;2023-05-20T04:30:07;13.80;99.90
1626;DHT22;806;48.770;9.156;2023-05-20T04:32:36;13.80;99.90
1626;DHT22;806;48.770;9.156;2023-05-20T04:35:04;13.80;99.90
1626;DHT22;806;48.770;9.156;2023-05-20T04:37:33;13.90;99.90
1626;DHT22;806;48.770;9.156;2023-05-20T04:40:02;13.90;99.90
1626;DHT22;806;48.770;9.156;2023-05-20T04:42:31;14.00;99.90
1626;DHT22;806;48.770;9.156;2023-05-20T04:44:58;14.10;99.90
1626;DHT22;806;48.770;9.156;2023-05-20T04:47:26;14.10;99.90
1626;DHT22;806;48.770;9.156;2023-05-20T04:49:55;14.10;99.90
1626;DHT22;806;48.770;9.156;2023-05-20T04:52:23;14.20;99.90
1626;DHT22;806;48.770;9.156;2023-05-20T04:54:50;14.20;99.90
1626;DHT22;806;48.770;9.156;2023-05-20T04:57:17;14.10;99.90
1626;DHT22;806;48.770;9.156;2023-05-20T04:59:45;14.00;99.90
1626;DHT22;806;48.770;9.156;2023-05-20T05:02:12;14.00;99.90
1626;DHT22;806;48.770;9.156;2023-05-20T05:04:40;14.00;99.90
1626;DHT22;806;48.770;9.156;2023-05-20T05:07:08;14.10;99.90
1626;DHT22;806;48.770;9.156;2023-05-20T05:09:35;14.10;99.90
1626;DHT22;806;48.770;9.156;2023-05-20T05:12:02;14.20;99.90
1626;DHT22;806;48.770;9.156;2023-05-20T05:14:30;14.30;99.90
1626;DHT22;806;48.770;9.156;2023-05-20T05:16:57;14.30;99.90
1626;DHT22;806;48.770;9.156;2023-05-20T05:19:24;14.30;99.90
1626;DHT22;806;48.770;9.156;2023-05-20T05:21:51;14.30;99.90
1626;DHT22;806;48.770;9.156;2023-05-20T05:24:19;14.40;99.90
1626;DHT22;806;48.770;9.156;2023-05-20T05:26:46;14.50;99.90
1626;DHT22;806;48.770;9.156;2023-05-20T05:29:13;14.40;99.90
1626;DHT22;806;48.770;9.156;2023-05-20T05:31:40;14.40;99.90
1626;DHT22;806;48.770;9.156;2023-05-20T05:34:07;14.40;99.90
1626;DHT22;806;48.770;9.156;2023-05-20T05:36:34;14.50;99.90
1626;DHT22;806;48.770;9.156;2023-05-20T05:39:01;14.50;99.90
1626;DHT22;806;48.770;9.156;2023-05-20T05:41:30;14.60;99.90
1626;DHT22;806;48.770;9.156;2023-05-20T05:43:57;14.70;99.90
1626;DHT22;806;48.770;9.156;2023-05-20T05:46:24;14.70;99.90
1626;DHT22;806;48.770;9.156;2023-05-20T05:48:51;14.80;99.90
1626;DHT22;806;48.770;9.156;2023-05-20T05:51:18;14.90;99.90
1626;DHT22;806;48.770;9.156;2023-05-20T05:53:45;15.00;99.90
1626;DHT22;806;48.770;9.156;2023-05-20T05:56:12;15.00;99.90
1626;DHT22;806;48.770;9.156;2023-05-20T05:58:41;15.10;99.90
1626;DHT22;806;48.770;9.156;2023-05-20T06:01:08;15.20;99.90
1626;DHT22;806;48.770;9.156;2023-05-20T06:03:36;15.20;99.90
1626;DHT22;806;48.770;9.156;2023-05-20T06:06:03;15.20;99.90
1626;DHT22;806;48.770;9.156;2023-05-20T06:08:30;15.30;99.90
1626;DHT22;806;48.770;9.156;2023-05-20T06:10:57;15.40;99.90
1626;DHT22;806;48.770;9.156;2023-05-20T06:13:24;15.50;99.90
1626;DHT22;806;48.770;9.156;2023-05-20T06:15:53;15.30;99.90
1626;DHT22;806;48.770;9.156;2023-05-20T06:18:20;15.30;99.90
1626;DHT22;806;48.770;9.156;2023-05-20T06:20:53;15.50;99.90
1626;DHT22;806;48.770;9.156;2023-05-20T06:23:21;15.60;99.90
1626;DHT22;806;48.770;9.156;2023-05-20T06:25:49;15.60;99.90
1626;DHT22;806;48.770;9.156;2023-05-20T06:28:16;15.60;99.90
1626;DHT22;806;48.770;9.156;2023-05-20T06:30:43;15.70;99.90
1626;DHT22;806;48.770;9.156;2023-05-20T06:33:11;15.90;99.90
1626;DHT22;806;48.770;9.156;2023-05-20T06:35:39;15.80;99.90
1626;DHT22;806;48.770;9.156;2023-05-20T06:38:06;15.80;99.90
1626;DHT22;806;48.770;9.156;2023-05-20T06:40:33;16.00;99.90
1626;DHT22;806;48.770;9.156;2023-05-20T06:43:00;15.90;99.90
1626;DHT22;806;48.770;9.156;2023-05-20T06:45:27;16.00;99.90
1626;DHT22;806;48.770;9.156;2023-05-20T06:47:54;16.00;99.90
1626;DHT22;806;48.770;9.156;2023-05-20T06:50:22;16.00;99.90
1626;DHT22;806;48.770;9.156;2023-05-20T06:52:49;16.10;99.90
1626;DHT22;806;48.770;9.156;2023-05-20T06:55:16;16.30;99.90
1626;DHT22;806;48.770;9.156;2023-05-20T06:57:43;16.50;99.90
1626;DHT22;806;48.770;9.156;2023-05-20T07:00:11;16.70;99.90
1626;DHT22;806;48.770;9.156;2023-05-20T07:02:39;16.80;99.90
1626;DHT22;806;48.770;9.156;2023-05-20T07:05:07;16.80;99.90
1626;DHT22;806;48.770;9.156;2023-05-20T07:07:35;16.80;99.90
1626;DHT22;806;48.770;9.156;2023-05-20T07:10:03;16.60;99.90
1626;DHT22;806;48.770;9.156;2023-05-20T07:12:30;16.50;99.90
1626;DHT22;806;48.770;9.156;2023-05-20T07:14:57;16.60;99.90
1626;DHT22;806;48.770;9.156;2023-05-20T07:17:25;16.70;99.90
1626;DHT22;806;48.770;9.156;2023-05-20T07:19:52;16.60;99.90
1626;DHT22;806;48.770;9.156;2023-05-20T07:22:19;16.70;99.90
1626;DHT22;806;48.770;9.156;2023-05-20T07:24:47;16.70;99.90
1626;DHT22;806;48.770;9.156;2023-05-20T07:27:15;16.70;99.90
1626;DHT22;806;48.770;9.156;2023-05-20T07:29:42;16.90;99.90
1626;DHT22;806;48.770;9.156;2023-05-20T07:32:09;16.90;99.90
1626;DHT22;806;48.770;9.156;2023-05-20T07:34:36;17.00;99.90
1626;DHT22;806;48.770;9.156;2023-05-20T07:37:03;17.00;99.90
1626;DHT22;806;48.770;9.156;2023-05-20T07:39:30;16.80;99.90
1626;DHT22;806;48.770;9.156;2023-05-20T07:41:59;16.90;99.90
1626;DHT22;806;48.770;9.156;2023-05-20T07:44:26;17.20;99.90
1626;DHT22;806;48.770;9.156;2023-05-20T07:46:53;17.30;99.90
1626;DHT22;806;48.770;9.156;2023-05-20T07:49:20;17.50;99.90
1626;DHT22;806;48.770;9.156;2023-05-20T07:51:47;17.50;99.90
1626;DHT22;806;48.770;9.156;2023-05-20T07:54:14;17.70;99.90
1626;DHT22;806;48.770;9.156;2023-05-20T07:56:42;17.90;99.90
1626;DHT22;806;48.770;9.156;2023-05-20T07:59:10;18.00;99.90
1626;DHT22;806;48.770;9.156;2023-05-20T08:01:39;18.10;99.90
1626;DHT22;806;48.770;9.156;2023-05-20T08:04:06;18.30;99.90
1626;DHT22;806;48.770;9.156;2023-05-20T08:06:34;18.50;99.90
1626;DHT22;806;48.770;9.156;2023-05-20T08:09:01;18.50;99.90
1626;DHT22;806;48.770;9.156;2023-05-20T08:11:29;18.50;99.90
1626;DHT22;806;48.770;9.156;2023-05-20T08:13:56;18.50;99.90
1626;DHT22;806;48.770;9.156;2023-05-20T08:16:24;18.60;99.90
1626;DHT22;806;48.770;9.156;2023-05-20T08:18:51;18.60;99.90
1626;DHT22;806;48.770;9.156;2023-05-20T08:21:18;18.80;99.90
1626;DHT22;806;48.770;9.156;2023-05-20T08:23:46;18.80;99.90
1626;DHT22;806;48.770;9.156;2023-05-20T08:26:13;18.70;99.90
1626;DHT22;806;48.770;9.156;2023-05-20T08:28:40;18.80;99.90
1626;DHT22;806;48.770;9.156;2023-05-20T08:31:07;18.80;99.90
1626;DHT22;806;48.770;9.156;2023-05-20T08:33:35;18.70;99.90
1626;DHT22;806;48.770;9.156;2023-05-20T08:36:03;18.30;99.90
1626;DHT22;806;48.770;9.156;2023-05-20T08:38:31;18.30;99.90
1626;DHT22;806;48.770;9.156;2023-05-20T08:40:58;18.40;99.90
1626;DHT22;806;48.770;9.156;2023-05-20T08:43:25;18.30;99.90
1626;DHT22;806;48.770;9.156;2023-05-20T08:45:53;18.50;99.90
1626;DHT22;806;48.770;9.156;2023-05-20T08:48:22;18.50;99.90
1626;DHT22;806;48.770;9.156;2023-05-20T08:50:51;18.70;99.90
1626;DHT22;806;48.770;9.156;2023-05-20T08:53:19;18.60;99.90
1626;DHT22;806;48.770;9.156;2023-05-20T08:55:52;18.90;99.90
1626;DHT22;806;48.770;9.156;2023-05-20T08:58:20;19.20;99.90
1626;DHT22;806;48.770;9.156;2023-05-20T09:00:47;19.50;99.90
1626;DHT22;806;48.770;9.156;2023-05-20T09:03:15;19.40;99.90
1626;DHT22;806;48.770;9.156;2023-05-20T09:05:45;19.30;99.90
1626;DHT22;806;48.770;9.156;2023-05-20T09:08:13;19.30;99.90
1626;DHT22;806;48.770;9.156;2023-05-20T09:10:41;19.50;99.90
1626;DHT22;806;48.770;9.156;2023-05-20T09:13:09;19.30;99.90
1626;DHT22;806;48.770;9.156;2023-05-20T09:15:37;19.10;99.90
1626;DHT22;806;48.770;9.156;2023-05-20T09:18:06;19.20;99.90
1626;DHT22;806;48.770;9.156;2023-05-20T09:20:34;19.50;99.90
1626;DHT22;806;48.770;9.156;2023-05-20T09:23:04;19.60;99.90
1626;DHT22;806;48.770;9.156;2023-05-20T09:25:34;19.70;99.90
1626;DHT22;806;48.770;9.156;2023-05-20T09:28:04;19.70;99.90
1626;DHT22;806;48.770;9.156;2023-05-20T09:30:32;19.60;99.90
1626;DHT22;806;48.770;9.156;2023-05-20T09:33:02;19.70;99.90
1626;DHT22;806;48.770;9.156;2023-05-20T09:35:29;19.80;99.90
1626;DHT22;806;48.770;9.156;2023-05-20T09:37:57;19.70;99.90
1626;DHT22;806;48.770;9.156;2023-05-20T09:40:26;19.50;99.90
1626;DHT22;806;48.770;9.156;2023-05-20T09:42:58;19.50;99.90
1626;DHT22;806;48.770;9.156;2023-05-20T09:45:27;19.60;99.90
1626;DHT22;806;48.770;9.156;2023-05-20T09:47:55;19.80;99.90
1626;DHT22;806;48.770;9.156;2023-05-20T09:50:23;19.80;99.90
1626;DHT22;806;48.770;9.156;2023-05-20T09:52:51;19.90;99.90
1626;DHT22;806;48.770;9.156;2023-05-20T09:55:20;19.90;99.90
1626;DHT22;806;48.770;9.156;2023-05-20T09:57:47;19.90;99.90
1626;DHT22;806;48.770;9.156;2023-05-20T10:00:16;20.00;99.90
1626;DHT22;806;48.770;9.156;2023-05-20T10:02:46;20.40;99.90
1626;DHT22;806;48.770;9.156;2023-05-20T10:05:15;20.60;99.90
1626;DHT22;806;48.770;9.156;2023-05-20T10:10:43;20.90;99.90
1626;DHT22;806;48.770;9.156;2023-05-20T10:13:21;21.20;99.90
1626;DHT22;806;48.770;9.156;2023-05-20T10:15:59;21.50;99.90
1626;DHT22;806;48.770;9.156;2023-05-20T10:18:40;21.80;99.90
1626;DHT22;806;48.770;9.156;2023-05-20T10:21:20;22.20;99.90
1626;DHT22;806;48.770;9.156;2023-05-20T10:23:49;22.60;99.90
1626;DHT22;806;48.770;9.156;2023-05-20T10:26:16;22.70;99.90
1626;DHT22;806;48.770;9.156;2023-05-20T10:28:45;22.80;99.90
1626;DHT22;806;48.770;9.156;2023-05-20T10:31:19;22.90;99.90
1626;DHT22;806;48.770;9.156;2023-05-20T10:33:47;23.10;99.90
1626;DHT22;806;48.770;9.156;2023-05-20T10:36:26;23.30;99.90
1626;DHT22;806;48.770;9.156;2023-05-20T10:38:53;23.20;99.90
1626;DHT22;806;48.770;9.156;2023-05-20T10:41:22;23.10;99.90
1626;DHT22;806;48.770;9.156;2023-05-20T10:44:00;23.00;99.90
1626;DHT22;806;48.770;9.156;2023-05-20T10:46:29;22.70;99.90
1626;DHT22;806;48.770;9.156;2023-05-20T10:48:56;22.60;99.90
1626;DHT22;806;48.770;9.156;2023-05-20T10:51:24;23.00;99.90
1626;DHT22;806;48.770;9.156;2023-05-20T10:53:56;23.60;99.90
1626;DHT22;806;48.770;9.156;2023-05-20T10:56:25;24.00;99.90
1626;DHT22;806;48.770;9.156;2023-05-20T10:58:54;23.50;99.90
1626;DHT22;806;48.770;9.156;2023-05-20T11:01:24;23.50;99.90
1626;DHT22;806;48.770;9.156;2023-05-20T11:03:53;23.50;99.90
1626;DHT22;806;48.770;9.156;2023-05-20T11:06:25;23.80;99.90
1626;DHT22;806;48.770;9.156;2023-05-20T11:08:53;24.00;99.90
1626;DHT22;806;48.770;9.156;2023-05-20T11:11:21;24.50;99.90
1626;DHT22;806;48.770;9.156;2023-05-20T11:13:50;24.70;99.90
1626;DHT22;806;48.770;9.156;2023-05-20T11:16:19;25.10;99.90
1626;DHT22;806;48.770;9.156;2023-05-20T11:18:48;24.90;99.90
1626;DHT22;806;48.770;9.156;2023-05-20T11:21:17;24.50;99.90
1626;DHT22;806;48.770;9.156;2023-05-20T11:23:45;24.40;99.90
1626;DHT22;806;48.770;9.156;2023-05-20T11:26:12;24.00;99.90
1626;DHT22;806;48.770;9.156;2023-05-20T11:28:39;23.90;99.90
1626;DHT22;806;48.770;9.156;2023-05-20T11:31:06;24.20;99.90
1626;DHT22;806;48.770;9.156;2023-05-20T11:33:33;24.40;99.90
1626;DHT22;806;48.770;9.156;2023-05-20T11:36:01;24.60;99.90
1626;DHT22;806;48.770;9.156;2023-05-20T11:38:30;25.10;99.90
1626;DHT22;806;48.770;9.156;2023-05-20T11:40:57;25.30;99.90
1626;DHT22;806;48.770;9.156;2023-05-20T11:43:25;25.00;99.90
1626;DHT22;806;48.770;9.156;2023-05-20T11:45:53;24.30;99.90
1626;DHT22;806;48.770;9.156;2023-05-20T11:48:20;23.80;99.90
1626;DHT22;806;48.770;9.156;2023-05-20T11:50:47;23.60;99.90
1626;DHT22;806;48.770;9.156;2023-05-20T11:53:15;23.50;99.90
1626;DHT22;806;48.770;9.156;2023-05-20T11:55:49;23.50;99.90
1626;DHT22;806;48.770;9.156;2023-05-20T11:58:18;23.60;99.90
1626;DHT22;806;48.770;9.156;2023-05-20T12:00:45;23.70;99.90
1626;DHT22;806;48.770;9.156;2023-05-20T12:03:12;23.80;99.90
1626;DHT22;806;48.770;9.156;2023-05-20T12:05:40;23.90;99.90
1626;DHT22;806;48.770;9.156;2023-05-20T12:08:07;23.90;99.90
1626;DHT22;806;48.770;9.156;2023-05-20T12:10:34;23.60;99.90
1626;DHT22;806;48.770;9.156;2023-05-20T12:13:04;23.60;99.90
1626;DHT22;806;48.770;9.156;2023-05-20T12:15:33;23.90;99.90
1626;DHT22;806;48.770;9.156;2023-05-20T12:18:01;24.60;99.90
1626;DHT22;806;48.770;9.156;2023-05-20T12:20:29;25.10;99.90
1626;DHT22;806;48.770;9.156;2023-05-20T12:22:58;25.10;99.90
1626;DHT22;806;48.770;9.156;2023-05-20T12:25:26;25.50;99.90
1626;DHT22;806;48.770;9.156;2023-05-20T12:27:53;26.00;99.90
1626;DHT22;806;48.770;9.156;2023-05-20T12:30:22;26.20;99.90
1626;DHT22;806;48.770;9.156;2023-05-20T12:32:50;26.40;99.90
1626;DHT22;806;48.770;9.156;2023-05-20T12:35:25;26.80;99.90
1626;DHT22;806;48.770;9.156;2023-05-20T12:38:01;26.70;99.60
1626;DHT22;806;48.770;9.156;2023-05-20T12:40:28;26.50;99.50
1626;DHT22;806;48.770;9.156;2023-05-20T12:42:55;26.00;99.90
1626;DHT22;806;48.770;9.156;2023-05-20T12:45:25;26.00;99.90
1626;DHT22;806;48.770;9.156;2023-05-20T12:47:52;25.70;99.90
1626;DHT22;806;48.770;9.156;2023-05-20T12:50:19;25.80;99.80
1626;DHT22;806;48.770;9.156;2023-05-20T12:52:46;26.00;99.30
1626;DHT22;806;48.770;9.156;2023-05-20T12:55:14;25.80;98.90
1626;DHT22;806;48.770;9.156;2023-05-20T12:57:42;25.30;99.60
1626;DHT22;806;48.770;9.156;2023-05-20T13:00:11;25.10;99.90
1626;DHT22;806;48.770;9.156;2023-05-20T13:02:40;25.10;99.90
1626;DHT22;806;48.770;9.156;2023-05-20T13:05:08;25.20;99.90
1626;DHT22;806;48.770;9.156;2023-05-20T13:07:35;25.20;99.90
1626;DHT22;806;48.770;9.156;2023-05-20T13:10:03;25.20;99.90
1626;DHT22;806;48.770;9.156;2023-05-20T13:12:30;25.20;99.90
1626;DHT22;806;48.770;9.156;2023-05-20T13:14:57;25.00;99.90
1626;DHT22;806;48.770;9.156;2023-05-20T13:17:24;24.80;99.90
1626;DHT22;806;48.770;9.156;2023-05-20T13:19:53;25.30;99.70
1626;DHT22;806;48.770;9.156;2023-05-20T13:22:20;26.00;99.50
1626;DHT22;806;48.770;9.156;2023-05-20T13:24:47;26.00;98.70
1626;DHT22;806;48.770;9.156;2023-05-20T13:27:15;26.00;97.30
1626;DHT22;806;48.770;9.156;2023-05-20T13:29:42;26.10;96.70
1626;DHT22;806;48.770;9.156;2023-05-20T13:32:09;25.40;96.00
1626;DHT22;806;48.770;9.156;2023-05-20T13:34:36;25.60;96.70
1626;DHT22;806;48.770;9.156;2023-05-20T13:37:05;26.00;96.40
1626;DHT22;806;48.770;9.156;2023-05-20T13:39:32;26.20;95.10
1626;DHT22;806;48.770;9.156;2023-05-20T13:41:59;26.20;95.00
1626;DHT22;806;48.770;9.156;2023-05-20T13:44:27;26.50;94.90
1626;DHT22;806;48.770;9.156;2023-05-20T13:46:54;26.60;94.00
1626;DHT22;806;48.770;9.156;2023-05-20T13:49:21;26.70;92.70
1626;DHT22;806;48.770;9.156;2023-05-20T13:51:50;26.50;92.80
1626;DHT22;806;48.770;9.156;2023-05-20T13:54:19;26.40;92.70
1626;DHT22;806;48.770;9.156;2023-05-20T13:56:46;25.70;93.40
1626;DHT22;806;48.770;9.156;2023-05-20T13:59:14;25.70;93.30
1626;DHT22;806;48.770;9.156;2023-05-20T14:01:42;25.20;93.10
1626;DHT22;806;48.770;9.156;2023-05-20T14:04:10;25.00;94.30
1626;DHT22;806;48.770;9.156;2023-05-20T14:06:38;24.80;95.00
1626;DHT22;806;48.770;9.156;2023-05-20T14:09:05;24.70;95.70
1626;DHT22;806;48.770;9.156;2023-05-20T14:11:35;24.90;96.30
1626;DHT22;806;48.770;9.156;2023-05-20T14:14:02;24.60;96.30
1626;DHT22;806;48.770;9.156;2023-05-20T14:16:30;24.50;96.60
1626;DHT22;806;48.770;9.156;2023-05-20T14:18:57;24.40;96.60
1626;DHT22;806;48.770;9.156;2023-05-20T14:21:24;24.60;96.80
1626;DHT22;806;48.770;9.156;2023-05-20T14:23:51;24.60;96.80
1626;DHT22;806;48.770;9.156;2023-05-20T14:26:18;24.70;96.70
1626;DHT22;806;48.770;9.156;2023-05-20T14:28:47;24.70;97.30
1626;DHT22;806;48.770;9.156;2023-05-20T14:31:14;24.70;97.10
1626;DHT22;806;48.770;9.156;2023-05-20T14:33:41;24.60;96.60
1626;DHT22;806;48.770;9.156;2023-05-20T14:36:09;24.60;97.50
1626;DHT22;806;48.770;9.156;2023-05-20T14:38:36;24.70;97.50
1626;DHT22;806;48.770;9.156;2023-05-20T14:41:03;24.70;97.40
1626;DHT22;806;48.770;9.156;2023-05-20T14:43:30;24.60;97.70
1626;DHT22;806;48.770;9.156;2023-05-20T14:45:59;24.60;97.20
1626;DHT22;806;48.770;9.156;2023-05-20T14:48:26;24.70;96.40
1626;DHT22;806;48.770;9.156;2023-05-20T14:50:53;24.80;96.80
1626;DHT22;806;48.770;9.156;2023-05-20T14:53:21;24.80;95.80
1626;DHT22;806;48.770;9.156;2023-05-20T14:55:48;25.10;95.60
1626;DHT22;806;48.770;9.156;2023-05-20T14:58:15;25.30;95.70
1626;DHT22;806;48.770;9.156;2023-05-20T15:00:43;25.40;95.20
1626;DHT22;806;48.770;9.156;2023-05-20T15:03:11;25.40;95.00
1626;DHT22;806;48.770;9.156;2023-05-20T15:05:38;25.40;94.50
1626;DHT22;806;48.770;9.156;2023-05-20T15:08:05;25.10;94.60
1626;DHT22;806;48.770;9.156;2023-05-20T15:10:32;25.00;94.80
1626;DHT22;806;48.770;9.156;2023-05-20T15:13:00;24.80;95.40
1626;DHT22;806;48.770;9.156;2023-05-20T15:15:27;24.40;94.90
1626;DHT22;806;48.770;9.156;2023-05-20T15:17:54;24.30;95.40
1626;DHT22;806;48.770;9.156;2023-05-20T15:20:22;24.20;95.60
1626;DHT22;806;48.770;9.156;2023-05-20T15:22:49;24.40;95.80
1626;DHT22;806;48.770;9.156;2023-05-20T15:25:16;24.30;96.30
1626;DHT22;806;48.770;9.156;2023-05-20T15:27:43;24.30;96.50
1626;DHT22;806;48.770;9.156;2023-05-20T15:30:12;24.40;96.60
1626;DHT22;806;48.770;9.156;2023-05-20T15:32:39;24.40;96.60
1626;DHT22;806;48.770;9.156;2023-05-20T15:35:08;24.40;95.70
1626;DHT22;806;48.770;9.156;2023-05-20T15:37:36;24.50;96.00
1626;DHT22;806;48.770;9.156;2023-05-20T15:40:04;24.70;96.30
1626;DHT22;806;48.770;9.156;2023-05-20T15:42:31;24.70;95.90
1626;DHT22;806;48.770;9.156;2023-05-20T15:44:59;24.80;96.00
1626;DHT22;806;48.770;9.156;2023-05-20T15:47:26;24.90;95.80
1626;DHT22;806;48.770;9.156;2023-05-20T15:49:53;24.80;96.40
1626;DHT22;806;48.770;9.156;2023-05-20T15:52:21;24.80;96.10
1626;DHT22;806;48.770;9.156;2023-05-20T15:54:50;24.70;96.00
1626;DHT22;806;48.770;9.156;2023-05-20T15:57:17;24.50;95.60
1626;DHT22;806;48.770;9.156;2023-05-20T15:59:44;24.30;95.40
1626;DHT22;806;48.770;9.156;2023-05-20T16:02:11;24.20;95.80
1626;DHT22;806;48.770;9.156;2023-05-20T16:04:38;24.20;95.70
1626;DHT22;806;48.770;9.156;2023-05-20T16:07:05;24.30;96.10
1626;DHT22;806;48.770;9.156;2023-05-20T16:09:33;24.30;96.10
1626;DHT22;806;48.770;9.156;2023-05-20T16:12:01;24.30;96.50
1626;DHT22;806;48.770;9.156;2023-05-20T16:14:29;24.30;97.80
1626;DHT22;806;48.770;9.156;2023-05-20T16:16:56;24.30;98.20
1626;DHT22;806;48.770;9.156;2023-05-20T16:19:23;24.20;98.90
1626;DHT22;806;48.770;9.156;2023-05-20T16:21:50;24.20;98.60
1626;DHT22;806;48.770;9.156;2023-05-20T16:24:17;24.20;99.30